Pittston, Maine
Current Conditions -  °F | °C
As of 10:53 AM on Thursday 30 Oct 2014 (Local Time) from KAUG Reporting Station
Overcast Overcast  
Wind Chill: 46°   Ceiling: 8500
Heat Index: 46°   Visibility: 10mi
Dew Point: 41°   Wind: 3mph
Humidity: 83%   Direction: 200°SSW
Pressure: 29.9"   Gusts: NA
Location:  44.198°N, 69.7053°W
Report Text: KAUG 301453Z AUTO 20003KT 10SM OVC085 08/05 A2990 RMK AO2 SLP126 T00780050 51006
Loading
Personal Weather Stations






























Interactive Weather Map
Tropical Storm Tracking
New forecast layout! Learn more

10-Day Weather Forecast

Advertisements
Track Severe Weather on mobile